Alpine, Alabama
Current Conditions -  °F | °C
As of 2:55 PM on Tuesday 21 Oct 2014 (Local Time) from KSCD Reporting Station
Scattered Clouds Scattered Clouds  
Wind Chill: 78°   Ceiling: Unl
Heat Index: 79°   Visibility: 10mi
Dew Point: 55°   Wind: 6mph
Humidity: 45%   Direction: 330°NNW
Pressure: 29.99"   Gusts: NA
Location:  33.34°N, 86.23°W
Report Text: KSCD 211955Z AUTO 33005KT 10SM SCT050 26/13 A2999 RMK AO2 T02580130
Loading
Personal Weather Stations






























Interactive Weather Map
Tropical Storm Tracking
New forecast layout! Learn more

10-Day Weather Forecast

Advertisements
Track Severe Weather on mobile